Halli, Halli Airport (EFHA)

NameHalli Airport
CityHalli
CountryFinland
ICAOEFHA
IATAKEV
Altitude146 m
CoordinatesGoogle Map
Live Air TrafficLiveATC.net
METAREFHA 190450Z AUTO 12008KT 090V150 8000 -SHRA OVC005 05/04 Q1020
2019-11-19 04:50:00 Wind: East-Southeast (120°) 4.12 m/s - Visibility: 8000 m - Weather: Light Showers Rain - Temperature: 5 °C - Dew point: 4 °C - Humidity: 93.3% - Pressure: 1020 hPa

Sorry, no flights used the airport in this database.